Time;durP1;ratioP1;P1;durP2;ratioP2;P2;SDS_P1;SDS_P2;PMS_P1;PMS_P2;Temp;Humidity;BMP_temperature;BMP_pressure;BME280_temperature;BME280_humidity;BME280_pressure;Samples;Min_cycle;Max_cycle;Signal;HPM_P1;HPM_P2
2022/12/22 03:26:52;;;;;;;56.17;31.55;;;;;;;7.28;100.00;100730.03;5013449;28;20500;-85
2022/12/22 03:29:18;;;;;;;60.90;33.85;;;;;;;7.18;100.00;100725.72;4995611;28;20129;-84
2022/12/22 03:31:43;;;;;;;61.60;33.25;;;;;;;7.10;100.00;100718.47;4996438;28;20038;-84
2022/12/22 03:34:09;;;;;;;60.50;34.63;;;;;;;7.04;100.00;100721.66;4995728;28;20080;-84
2022/12/22 03:36:35;;;;;;;62.85;34.80;;;;;;;7.08;100.00;100704.63;4994915;28;20109;-83
2022/12/22 03:39:00;;;;;;;70.75;35.50;;;;;;;6.99;100.00;100704.59;4995320;28;20042;-83
2022/12/22 03:46:53;;;;;;;52.92;30.90;;;;;;;7.40;100.00;100682.44;4994861;28;20038;-84
2022/12/22 03:49:21;;;;;;;62.72;35.05;;;;;;;6.96;100.00;100676.69;4994641;28;20073;-84
2022/12/22 03:51:49;;;;;;;69.82;35.85;;;;;;;6.80;100.00;100672.91;4994481;28;20045;-83
2022/12/22 03:54:21;;;;;;;64.72;36.50;;;;;;;6.73;100.00;100676.06;4994992;28;20034;-85
2022/12/22 03:56:47;;;;;;;65.67;36.80;;;;;;;6.73;100.00;100676.06;4994368;28;20065;-82
2022/12/22 03:59:14;;;;;;;68.53;36.13;;;;;;;6.59;100.00;100665.94;4994779;28;20035;-83
2022/12/22 04:01:42;;;;;;;67.13;36.30;;;;;;;6.66;100.00;100661.78;4994489;28;20102;-82
2022/12/22 04:04:10;;;;;;;69.10;36.60;;;;;;;6.81;100.00;100670.16;4995007;28;20042;-82
2022/12/22 04:06:36;;;;;;;62.63;35.05;;;;;;;6.84;100.00;100679.56;4994855;28;20034;-84
2022/12/22 04:09:02;;;;;;;67.90;34.20;;;;;;;7.07;100.00;100692.41;4993197;28;20398;-82
2022/12/22 04:14:11;;;;;;;60.00;34.20;;;;;;;7.14;100.00;100690.06;5002488;28;20074;-84
2022/12/22 04:16:37;;;;;;;58.25;33.00;;;;;;;7.31;100.00;100689.38;5010482;28;20034;-82
2022/12/22 04:19:02;;;;;;;57.33;32.95;;;;;;;7.43;100.00;100704.09;5015355;28;20041;-82
2022/12/22 04:21:28;;;;;;;58.15;33.72;;;;;;;7.53;100.00;100707.56;5015406;28;20057;-82
2022/12/22 04:23:54;;;;;;;55.78;32.03;;;;;;;7.58;100.00;100707.19;5015852;28;20044;-82
2022/12/22 04:26:24;;;;;;;63.33;33.80;;;;;;;7.37;100.00;100715.19;5016434;28;20114;-82
2022/12/22 04:28:50;;;;;;;67.25;33.17;;;;;;;7.13;100.00;100702.38;5015615;28;20219;-84
2022/12/22 04:31:16;;;;;;;63.35;34.30;;;;;;;6.94;100.00;100704.16;5015113;28;20366;-82
2022/12/22 04:33:41;;;;;;;63.78;34.60;;;;;;;7.19;100.00;100706.31;4997336;28;20075;-81
2022/12/22 04:36:10;;;;;;;58.22;32.78;;;;;;;7.30;100.00;100698.25;5014380;28;20120;-83
2022/12/22 04:38:36;;;;;;;61.92;35.88;;;;;;;6.95;100.00;100687.38;5014644;28;20034;-81
2022/12/22 04:41:02;;;;;;;69.28;37.30;;;;;;;6.70;100.00;100667.59;5014067;28;20030;-83
2022/12/22 04:43:28;;;;;;;80.90;41.20;;;;;;;6.66;100.00;100663.59;5014506;28;20040;-83
2022/12/22 04:45:55;;;;;;;82.75;42.63;;;;;;;6.66;100.00;100666.22;5014083;28;20088;-83
2022/12/22 04:48:25;;;;;;;83.07;43.22;;;;;;;6.64;100.00;100679.50;5014052;28;20057;-82
2022/12/22 04:50:53;;;;;;;77.07;39.75;;;;;;;6.74;100.00;100693.56;5014600;28;20080;-83
2022/12/22 04:53:19;;;;;;;66.95;35.33;;;;;;;7.09;100.00;100695.72;5014145;28;20054;-82
2022/12/22 04:56:05;;;;;;;65.97;36.50;;;;;;;7.25;100.00;100697.84;5013764;28;20034;-82
2022/12/22 04:58:31;;;;;;;63.78;36.03;;;;;;;7.24;100.00;100693.53;5014144;28;20045;-82
2022/12/22 05:01:16;;;;;;;66.97;35.85;;;;;;;7.18;100.00;100686.19;4980547;28;20042;-82
2022/12/22 05:03:42;;;;;;;57.83;33.47;;;;;;;6.94;100.00;100685.69;4996438;28;20044;-81
2022/12/22 05:06:09;;;;;;;63.17;33.40;;;;;;;6.73;100.00;100689.25;5013818;28;20065;-82
2022/12/22 05:08:34;;;;;;;59.70;32.72;;;;;;;6.83;100.00;100677.94;5016684;28;20045;-82
2022/12/22 05:11:01;;;;;;;58.28;33.20;;;;;;;6.98;100.00;100676.56;5017918;28;20030;-83
2022/12/22 05:13:28;;;;;;;58.17;31.15;;;;;;;7.16;100.00;100685.47;5017570;28;20041;-82
2022/12/22 05:15:53;;;;;;;55.50;32.78;;;;;;;7.23;100.00;100682.16;5017257;28;20026;-82
2022/12/22 05:18:19;;;;;;;56.60;32.80;;;;;;;7.16;100.00;100693.38;4999715;28;20107;-83
2022/12/22 05:20:44;;;;;;;58.08;32.13;;;;;;;7.30;100.00;100703.53;5016973;28;20026;-81
2022/12/22 05:23:10;;;;;;;58.20;31.45;;;;;;;7.14;100.00;100698.78;4999871;28;20029;-85
2022/12/22 05:25:35;;;;;;;54.35;31.00;;;;;;;7.35;100.00;100685.50;5017152;28;20042;-82
2022/12/22 05:28:01;;;;;;;57.95;32.35;;;;;;;7.32;100.00;100682.31;5018340;28;20086;-83
2022/12/22 05:30:39;;;;;;;59.33;32.33;;;;;;;7.09;100.00;100684.38;5003524;28;20041;-81
2022/12/22 05:33:05;;;;;;;56.88;33.00;;;;;;;6.99;100.00;100683.50;5020753;28;20038;-82
2022/12/22 05:35:30;;;;;;;58.85;31.75;;;;;;;7.02;100.00;100678.81;5018636;28;20030;-83
2022/12/22 05:37:56;;;;;;;56.40;31.45;;;;;;;7.07;100.00;100687.13;5017520;28;20033;-83
2022/12/22 05:40:21;;;;;;;58.00;31.15;;;;;;;7.28;100.00;100694.94;5018750;28;20113;-80
2022/12/22 05:42:50;;;;;;;50.65;29.55;;;;;;;7.37;100.00;100696.75;4999579;28;20042;-82
2022/12/22 05:45:20;;;;;;;54.40;30.52;;;;;;;7.25;100.00;100705.75;5022176;28;20026;-82
2022/12/22 05:47:53;;;;;;;57.50;30.77;;;;;;;7.13;100.00;100697.13;5008267;28;20076;-81
2022/12/22 05:50:22;;;;;;;55.78;30.70;;;;;;;7.18;100.00;100687.03;5005770;28;20093;-81
2022/12/22 05:52:57;;;;;;;57.38;31.58;;;;;;;7.32;100.00;100690.22;5020156;28;20034;-82
2022/12/22 05:55:23;;;;;;;55.95;30.40;;;;;;;7.20;100.00;100676.31;5020282;28;20112;-81
2022/12/22 05:57:48;;;;;;;74.18;37.17;;;;;;;7.05;100.00;100680.34;5002530;28;20128;-82
2022/12/22 06:00:15;;;;;;;65.18;33.10;;;;;;;7.32;100.00;100677.88;5002909;28;20070;-82
2022/12/22 06:02:44;;;;;;;69.30;35.28;;;;;;;7.37;100.00;100672.19;5020060;28;20109;-80
2022/12/22 06:05:11;;;;;;;61.67;31.70;;;;;;;7.49;100.00;100677.16;5020637;28;20018;-82
2022/12/22 06:07:37;;;;;;;53.08;29.38;;;;;;;7.38;100.00;100673.84;5019943;28;20037;-81
2022/12/22 06:10:04;;;;;;;50.63;28.75;;;;;;;7.45;100.00;100675.81;5019822;28;20041;-83
2022/12/22 06:12:29;;;;;;;51.17;29.65;;;;;;;7.63;100.00;100689.94;5019805;28;20034;-80
2022/12/22 06:14:56;;;;;;;55.05;29.90;;;;;;;7.53;100.00;100688.28;5019517;28;20056;-83
2022/12/22 06:17:22;;;;;;;55.03;29.58;;;;;;;7.32;100.00;100688.44;5002397;28;20026;-81
2022/12/22 06:19:47;;;;;;;56.60;31.58;;;;;;;7.10;100.00;100684.22;5002258;28;20439;-82
2022/12/22 06:22:13;;;;;;;53.95;29.23;;;;;;;7.00;100.00;100675.47;5020928;28;20034;-82
2022/12/22 06:24:41;;;;;;;52.42;29.83;;;;;;;6.90;100.00;100671.13;5002958;28;20045;-81
2022/12/22 06:27:07;;;;;;;53.30;31.23;;;;;;;6.95;100.00;100663.66;5021991;28;20089;-82
2022/12/22 06:29:36;;;;;;;61.20;33.63;;;;;;;6.78;100.00;100669.56;5022885;28;20133;-83
2022/12/22 06:32:02;;;;;;;56.55;32.55;;;;;;;6.72;100.00;100661.25;5025979;28;20034;-82
2022/12/22 06:34:36;;;;;;;60.47;32.45;;;;;;;6.74;100.00;100651.41;5011320;28;20050;-82
2022/12/22 06:37:02;;;;;;;57.28;30.90;;;;;;;6.85;100.00;100657.53;5030058;28;20038;-83
2022/12/22 06:39:27;;;;;;;58.67;32.45;;;;;;;6.74;100.00;100647.94;5028024;28;20465;-81
2022/12/22 06:44:37;;;;;;;55.22;30.75;;;;;;;6.79;100.00;100637.84;5021371;28;20033;-81
2022/12/22 06:47:04;;;;;;;54.60;30.45;;;;;;;6.91;100.00;100634.13;5019661;28;20086;-83
2022/12/22 06:49:29;;;;;;;54.25;28.88;;;;;;;7.08;100.00;100630.00;5019960;28;20065;-81
2022/12/22 06:51:55;;;;;;;56.30;31.13;;;;;;;6.99;100.00;100644.81;5019774;28;20118;-83
2022/12/22 06:54:20;;;;;;;57.70;30.55;;;;;;;6.92;100.00;100642.84;5000688;28;20023;-78
2022/12/22 06:56:45;;;;;;;54.08;29.02;;;;;;;7.03;100.00;100653.25;4999669;28;20481;-83
2022/12/22 06:59:11;;;;;;;55.42;29.52;;;;;;;7.12;100.00;100661.22;4993750;28;20042;-82
2022/12/22 07:01:37;;;;;;;53.40;30.25;;;;;;;7.06;100.00;100658.28;4993764;28;20105;-84
2022/12/22 07:04:03;;;;;;;53.70;28.33;;;;;;;7.02;100.00;100662.16;5017931;28;20049;-82
2022/12/22 07:06:28;;;;;;;56.63;30.35;;;;;;;7.15;100.00;100657.47;4999477;28;20436;-79
2022/12/22 07:08:56;;;;;;;51.85;29.48;;;;;;;7.05;100.00;100664.53;5004300;28;20070;-81
2022/12/22 07:11:22;;;;;;;56.10;30.58;;;;;;;7.09;100.00;100653.56;5012610;28;20133;-82
2022/12/22 07:13:48;;;;;;;53.13;28.95;;;;;;;7.12;100.00;100660.38;4992075;28;20076;-82
2022/12/22 07:16:17;;;;;;;57.05;29.10;;;;;;;7.15;100.00;100657.47;4993959;28;20496;-82
2022/12/22 07:18:44;;;;;;;47.22;26.63;;;;;;;7.34;100.00;100656.63;5008160;28;20456;-82
2022/12/22 07:21:13;;;;;;;47.30;26.75;;;;;;;7.33;100.00;100663.72;5007490;28;20022;-83
2022/12/22 07:23:42;;;;;;;44.35;24.60;;;;;;;7.49;100.00;100665.81;5009261;28;20043;-81
2022/12/22 07:26:08;;;;;;;40.60;23.23;;;;;;;7.61;100.00;100684.00;5018923;28;20070;-84
2022/12/22 07:28:35;;;;;;;43.53;24.05;;;;;;;7.70;100.00;100695.50;5017806;28;20072;-83
2022/12/22 07:31:04;;;;;;;45.67;25.60;;;;;;;7.65;100.00;100703.84;5017933;28;20034;-84
2022/12/22 07:33:30;;;;;;;41.05;24.00;;;;;;;7.48;100.00;100699.25;5005104;28;20477;-81
2022/12/22 07:36:17;;;;;;;39.75;22.77;;;;;;;7.52;100.00;100713.84;4996562;28;20035;-83
2022/12/22 07:38:46;;;;;;;41.10;22.63;;;;;;;7.59;100.00;100709.66;4997604;28;20088;-80
2022/12/22 07:44:00;;;;;;;36.83;22.73;;;;;;;7.50;100.00;100715.75;4989795;28;20088;-81
2022/12/22 07:46:28;;;;;;;41.60;23.23;;;;;;;7.38;100.00;100740.59;4995893;28;20049;-82
2022/12/22 07:51:40;;;;;;;37.80;21.23;;;;;;;7.60;100.00;100753.53;5005833;28;20042;-81
2022/12/22 07:54:07;;;;;;;38.50;22.60;;;;;;;7.49;100.00;100745.75;5008451;28;20050;-80
2022/12/22 07:56:36;;;;;;;38.17;21.83;;;;;;;7.51;100.00;100742.97;4991360;28;20503;-79
2022/12/22 07:59:02;;;;;;;33.13;19.83;;;;;;;7.41;100.00;100740.34;5004407;28;20110;-82
2022/12/22 08:01:28;;;;;;;35.08;21.58;;;;;;;7.44;100.00;100744.50;4993462;28;20039;-83
2022/12/22 08:03:53;;;;;;;36.30;20.33;;;;;;;7.54;100.00;100747.97;4972320;28;20050;-81
2022/12/22 08:06:19;;;;;;;40.55;21.08;;;;;;;7.60;100.00;100747.41;4989000;28;20038;-82
2022/12/22 08:08:44;;;;;;;37.10;21.17;;;;;;;7.46;100.00;100735.47;4978507;28;20043;-82
2022/12/22 08:11:11;;;;;;;36.63;22.83;;;;;;;7.42;100.00;100734.09;4978266;28;20054;-83
2022/12/22 08:13:36;;;;;;;35.85;22.48;;;;;;;7.42;100.00;100728.81;4976980;28;20041;-83
2022/12/22 08:16:07;;;;;;;41.47;22.27;;;;;;;7.71;100.00;100739.38;4975904;28;20105;-83
2022/12/22 08:18:34;;;;;;;35.25;20.50;;;;;;;7.65;100.00;100742.59;4975502;28;20042;-81
2022/12/22 08:21:00;;;;;;;44.92;22.13;;;;;;;7.73;100.00;100740.91;4976423;28;20038;-80
2022/12/22 08:23:26;;;;;;;40.53;21.73;;;;;;;7.75;100.00;100746.06;4977762;28;20054;-83
2022/12/22 08:26:01;;;;;;;39.55;22.45;;;;;;;7.80;100.00;100744.66;4976735;28;20073;-81
2022/12/22 08:28:28;;;;;;;40.85;22.45;;;;;;;7.84;100.00;100750.50;4990959;28;20030;-79
2022/12/22 08:30:53;;;;;;;42.20;20.90;;;;;;;7.94;100.00;100753.97;5016980;28;20027;-81
2022/12/22 08:33:19;;;;;;;39.47;23.40;;;;;;;8.00;100.00;100760.47;5018192;28;20037;-80
2022/12/22 08:35:44;;;;;;;36.17;21.75;;;;;;;7.92;100.00;100755.91;5018172;28;20039;-83
2022/12/22 08:38:12;;;;;;;36.65;19.77;;;;;;;7.99;100.00;100764.09;5018170;28;20046;-83
2022/12/22 08:40:38;;;;;;;34.30;20.17;;;;;;;8.03;100.00;100752.28;5003202;28;20041;-81
2022/12/22 08:43:07;;;;;;;31.35;18.30;;;;;;;8.02;100.00;100753.28;4998013;28;20043;-81
2022/12/22 08:45:33;;;;;;;34.22;19.55;;;;;;;8.15;100.00;100753.81;5000723;28;20030;-81
2022/12/22 08:47:58;;;;;;;38.72;20.73;;;;;;;8.18;100.00;100740.34;5001093;28;20039;-82
2022/12/22 08:50:24;;;;;;;35.00;20.58;;;;;;;8.18;100.00;100732.41;5001217;28;20037;-81
2022/12/22 08:52:50;;;;;;;33.33;20.65;;;;;;;8.11;100.00;100736.59;5004606;28;20022;-81
2022/12/22 08:55:16;;;;;;;34.33;21.13;;;;;;;8.19;100.00;100731.41;4985150;28;20039;-81
2022/12/22 08:57:42;;;;;;;37.45;20.50;;;;;;;8.27;100.00;100731.56;5004157;28;20034;-83
2022/12/22 09:00:09;;;;;;;34.35;20.25;;;;;;;8.18;100.00;100727.97;5002539;28;20034;-82
2022/12/22 09:02:34;;;;;;;35.95;21.20;;;;;;;8.12;100.00;100722.44;5002871;28;20117;-81
2022/12/22 09:05:03;;;;;;;36.65;20.42;;;;;;;8.06;100.00;100710.59;5006525;28;20069;-80
2022/12/22 09:07:29;;;;;;;35.25;21.17;;;;;;;8.01;100.00;100718.13;5003299;28;20050;-80
2022/12/22 09:09:57;;;;;;;34.55;20.40;;;;;;;8.18;100.00;100716.56;5003799;28;20034;-80
2022/12/22 09:12:22;;;;;;;36.42;21.33;;;;;;;7.97;100.00;100713.25;5005078;28;20034;-81
2022/12/22 09:14:48;;;;;;;38.63;20.10;;;;;;;7.91;100.00;100719.09;5006817;28;20099;-80
2022/12/22 09:17:13;;;;;;;30.48;18.85;;;;;;;7.82;100.00;100720.78;5007040;28;20088;-79
2022/12/22 09:19:39;;;;;;;31.65;20.23;;;;;;;7.89;100.00;100705.22;5002453;28;20045;-81
2022/12/22 09:22:04;;;;;;;32.72;19.73;;;;;;;7.82;100.00;100689.94;5000404;28;20041;-81
2022/12/22 09:24:30;;;;;;;31.52;19.95;;;;;;;7.89;100.00;100686.75;4998697;28;20042;-79
2022/12/22 09:26:55;;;;;;;36.25;21.15;;;;;;;7.80;100.00;100697.16;4999027;28;20385;-82
2022/12/22 09:29:21;;;;;;;37.47;22.60;;;;;;;7.84;100.00;100699.53;4997165;28;20089;-81
2022/12/22 09:31:46;;;;;;;32.88;19.63;;;;;;;7.76;100.00;100695.78;4997683;28;20341;-82
2022/12/22 09:34:12;;;;;;;32.50;20.08;;;;;;;7.77;100.00;100689.53;4998049;28;20088;-81
2022/12/22 09:36:40;;;;;;;38.83;21.90;;;;;;;7.85;100.00;100678.28;4997780;28;20397;-82
2022/12/22 09:39:07;;;;;;;37.25;20.98;;;;;;;7.89;100.00;100684.94;4997362;28;20034;-82
2022/12/22 09:41:46;;;;;;;35.03;22.05;;;;;;;7.87;100.00;100681.63;4996836;28;20092;-80
2022/12/22 09:44:35;;;;;;;37.97;20.95;;;;;;;7.96;100.00;100679.91;4997098;28;20038;-80
2022/12/22 09:47:09;;;;;;;32.90;21.20;;;;;;;8.09;100.00;100680.44;4996890;28;20031;-81
2022/12/22 09:49:35;;;;;;;35.30;21.80;;;;;;;7.99;100.00;100684.91;4996468;28;20425;-80
2022/12/22 09:52:03;;;;;;;35.47;22.80;;;;;;;8.03;100.00;100678.38;4997784;28;20034;-81
2022/12/22 09:54:29;;;;;;;38.88;20.90;;;;;;;8.02;100.00;100674.09;4996845;28;20025;-81
2022/12/22 09:56:56;;;;;;;36.30;22.23;;;;;;;8.14;100.00;100678.22;4998819;28;20034;-82
2022/12/22 09:59:24;;;;;;;37.00;21.58;;;;;;;8.42;100.00;100676.53;4997535;28;20370;-82
2022/12/22 10:02:27;;;;;;;30.25;20.60;;;;;;;8.41;100.00;100685.41;4995043;28;20038;-82
2022/12/22 10:05:05;;;;;;;36.13;20.67;;;;;;;8.52;100.00;100677.28;4994826;28;20473;-83
2022/12/22 10:07:37;;;;;;;36.53;21.75;;;;;;;8.45;100.00;100673.59;4996421;28;20153;-82
2022/12/22 10:10:27;;;;;;;40.40;20.98;;;;;;;8.57;100.00;100681.19;4996553;28;20066;-81
2022/12/22 10:13:03;;;;;;;36.55;20.15;;;;;;;8.54;100.00;100665.63;4996397;28;20045;-80
2022/12/22 10:15:38;;;;;;;36.17;22.08;;;;;;;8.48;100.00;100666.22;4996244;28;20038;-82
2022/12/22 10:18:20;;;;;;;42.00;21.35;;;;;;;8.52;100.00;100667.56;4996210;28;20038;-81
2022/12/22 10:21:13;;;;;;;30.13;15.13;;;;;;;8.58;100.00;100671.47;4995877;28;20557;-80
2022/12/22 10:23:42;;;;;;;33.50;20.08;;;;;;;8.57;100.00;100669.78;4988697;28;20321;-82
2022/12/22 10:26:13;;;;;;;35.85;20.60;;;;;;;8.57;100.00;100659.22;4996198;28;20065;-83
2022/12/22 10:28:46;;;;;;;37.72;21.77;;;;;;;8.52;100.00;100666.72;4995593;28;20030;-81
2022/12/22 10:31:38;;;;;;;33.08;21.20;;;;;;;8.65;100.00;100662.78;4996575;28;20042;-81
2022/12/22 10:34:16;;;;;;;37.43;21.33;;;;;;;8.64;100.00;100657.66;4994720;28;20038;-82
2022/12/22 10:36:51;;;;;;;36.80;23.50;;;;;;;8.69;100.00;100652.75;4995886;28;20042;-81
2022/12/22 10:39:34;;;;;;;36.58;21.25;;;;;;;8.77;100.00;100656.34;4996056;28;20397;-82
2022/12/22 10:42:06;;;;;;;32.95;20.20;;;;;;;8.87;100.00;100644.88;4998860;28;20048;-83
2022/12/22 10:44:33;;;;;;;;;;;;;;;8.85;100.00;100660.06;4997069;28;20037;-82
2022/12/22 10:47:09;;;;;;;33.88;21.13;;;;;;;8.85;100.00;100652.94;4995989;28;19959;-81
2022/12/22 10:49:42;;;;;;;35.67;21.17;;;;;;;8.82;100.00;100669.09;4998008;28;20493;-80
2022/12/22 10:52:27;;;;;;;35.17;21.60;;;;;;;8.81;100.00;100670.94;5001206;28;20042;-83
2022/12/22 10:55:15;;;;;;;37.30;23.98;;;;;;;8.77;100.00;100672.19;5001570;28;20065;-81
2022/12/22 10:57:40;;;;;;;39.10;22.75;;;;;;;8.77;100.00;100680.13;5000343;28;20065;-82
2022/12/22 11:00:28;;;;;;;38.60;23.58;;;;;;;8.82;100.00;100680.50;5000561;28;20049;-82
2022/12/22 11:03:00;;;;;;;36.05;23.48;;;;;;;8.88;100.00;100683.56;5001149;28;20038;-81
2022/12/22 11:05:26;;;;;;;28.80;16.13;;;;;;;8.93;100.00;100678.63;4998831;28;20456;-80
2022/12/22 11:07:52;;;;;;;36.20;21.45;;;;;;;9.01;100.00;100674.28;5000095;28;20046;-79
2022/12/22 11:10:33;;;;;;;35.08;22.45;;;;;;;8.94;100.00;100682.97;5001447;28;20054;-82
2022/12/22 11:13:32;;;;;;;38.10;22.52;;;;;;;8.85;100.00;100673.28;5004943;28;20031;-80
2022/12/22 11:16:34;;;;;;;36.20;21.88;;;;;;;9.11;100.00;100682.16;5007681;28;20031;-79
2022/12/22 11:19:09;;;;;;;37.88;23.45;;;;;;;9.22;100.00;100692.50;5010514;28;20066;-78
2022/12/22 11:21:45;;;;;;;45.00;23.83;;;;;;;9.08;100.00;100691.19;5013468;28;20097;-80
2022/12/22 11:24:29;;;;;;;40.75;24.38;;;;;;;8.92;100.00;100692.81;5015134;28;20045;-80
2022/12/22 11:27:21;;;;;;;42.95;26.27;;;;;;;8.90;100.00;100692.16;5002300;28;20050;-79
2022/12/22 11:29:58;;;;;;;47.08;28.02;;;;;;;8.93;100.00;100691.84;5004138;28;20041;-78
2022/12/22 11:32:32;;;;;;;45.85;27.52;;;;;;;8.95;100.00;100688.06;5006349;28;20038;-80
2022/12/22 11:34:58;;;;;;;46.35;28.98;;;;;;;8.99;100.00;100680.69;5008595;28;20038;-86
2022/12/22 11:37:47;;;;;;;44.95;28.77;;;;;;;8.91;100.00;100688.53;5011475;28;20066;-82
2022/12/22 11:40:33;;;;;;;47.00;28.98;;;;;;;8.85;100.00;100691.78;5004885;28;20415;-81
2022/12/22 11:43:28;;;;;;;45.25;28.13;;;;;;;8.81;100.00;100681.50;4998226;28;20125;-80
2022/12/22 11:46:13;;;;;;;48.17;29.00;;;;;;;8.92;100.00;100664.59;4992461;28;20042;-80
2022/12/22 11:48:51;;;;;;;42.80;25.52;;;;;;;8.88;100.00;100665.06;4998099;28;20077;-82
2022/12/22 11:51:37;;;;;;;43.17;26.50;;;;;;;8.90;100.00;100660.44;4995862;28;20085;-79
2022/12/22 11:54:19;;;;;;;44.13;25.65;;;;;;;8.95;100.00;100658.19;4967049;28;20065;-80
2022/12/22 11:56:52;;;;;;;36.33;19.92;;;;;;;8.88;100.00;100663.25;4998110;28;20121;-81
2022/12/22 11:59:33;;;;;;;42.55;26.08;;;;;;;8.87;100.00;100663.38;4996253;28;20038;-80
2022/12/22 12:02:34;;;;;;;43.53;25.02;;;;;;;8.92;100.00;100653.19;4996980;28;20046;-81
2022/12/22 12:05:30;;;;;;;44.75;26.10;;;;;;;9.04;100.00;100644.09;4964781;28;20074;-82
2022/12/22 12:08:18;;;;;;;41.53;26.15;;;;;;;8.97;100.00;100640.38;4994517;28;20039;-81
2022/12/22 12:10:51;;;;;;;52.00;26.38;;;;;;;9.11;100.00;100627.47;4996928;28;20099;-80
2022/12/22 12:13:16;;;;;;;49.67;26.50;;;;;;;9.12;100.00;100620.34;4996566;28;20039;-80
2022/12/22 12:16:14;;;;;;;43.63;26.20;;;;;;;9.19;100.00;100624.06;4995907;28;20034;-80
2022/12/22 12:19:12;;;;;;;48.63;26.50;;;;;;;9.13;100.00;100612.28;4995168;28;20035;-81
2022/12/22 12:21:53;;;;;;;42.50;26.20;;;;;;;9.16;100.00;100619.06;4973719;28;20042;-79
2022/12/22 12:24:40;;;;;;;41.88;27.17;;;;;;;9.26;100.00;100610.09;4995655;28;20082;-82
2022/12/22 12:27:32;;;;;;;50.90;28.35;;;;;;;9.27;100.00;100603.00;4996731;28;20040;-82
2022/12/22 12:30:12;;;;;;;48.97;27.75;;;;;;;9.27;100.00;100606.47;4998993;28;20083;-84
2022/12/22 12:33:05;;;;;;;50.45;26.70;;;;;;;9.22;100.00;100602.59;4997837;28;20035;-84
2022/12/22 12:35:59;;;;;;;44.88;25.45;;;;;;;9.34;100.00;100586.38;4998013;28;20079;-84
2022/12/22 12:38:59;;;;;;;47.13;26.40;;;;;;;9.22;100.00;100586.75;4998995;28;20050;-88
2022/12/22 12:41:35;;;;;;;45.38;26.38;;;;;;;9.40;100.00;100587.56;4996247;28;20413;-84
2022/12/22 12:44:03;;;;;;;40.08;25.10;;;;;;;9.34;100.00;100577.59;4993356;28;20476;-82
2022/12/22 12:47:05;;;;;;;44.15;26.48;;;;;;;9.31;100.00;100577.91;4995735;28;20102;-83
2022/12/22 12:49:34;;;;;;;46.58;26.92;;;;;;;9.26;100.00;100580.16;4994541;28;20485;-83
2022/12/22 12:52:10;;;;;;;46.30;26.95;;;;;;;9.40;100.00;100579.63;4987446;28;20129;-82
2022/12/22 12:54:45;;;;;;;44.47;28.00;;;;;;;9.40;100.00;100579.63;4973366;28;20121;-81
2022/12/22 12:57:48;;;;;;;44.00;27.40;;;;;;;9.27;100.00;100580.03;4993656;28;20038;-82
2022/12/22 13:00:47;;;;;;;54.17;28.90;;;;;;;9.36;100.00;100565.03;4994404;28;20042;-80
2022/12/22 13:03:27;;;;;;;49.50;28.45;;;;;;;9.42;100.00;100571.53;4915585;29;20044;-81
2022/12/22 13:05:58;;;;;;;50.80;30.67;;;;;;;9.41;100.00;100564.59;4914833;29;20067;-81
2022/12/22 13:08:46;;;;;;;52.53;28.98;;;;;;;9.36;100.00;100565.03;4915404;29;20040;-81
2022/12/22 13:11:14;;;;;;;46.70;28.58;;;;;;;9.33;100.00;100562.72;4899155;29;20044;-82
2022/12/22 13:13:58;;;;;;;48.90;29.33;;;;;;;9.38;100.00;100567.56;4976926;28;20046;-82
2022/12/22 13:16:47;;;;;;;51.95;28.77;;;;;;;9.28;100.00;100554.38;4995832;28;20034;-81
2022/12/22 13:19:35;;;;;;;45.58;28.23;;;;;;;9.48;100.00;100553.22;4993927;28;20092;-81
2022/12/22 13:22:01;;;;;;;48.60;28.65;;;;;;;9.61;100.00;100566.88;4993914;28;20042;-82
2022/12/22 13:24:29;;;;;;;50.00;30.30;;;;;;;9.58;100.00;100576.97;4977243;28;20389;-82
2022/12/22 13:27:02;;;;;;;50.50;29.17;;;;;;;9.51;100.00;100581.22;4994746;28;20596;-83
2022/12/22 13:29:39;;;;;;;;;;;;;;;9.50;100.00;100577.72;4980111;28;20416;-79
2022/12/22 13:32:24;;;;;;;54.20;31.73;;;;;;;9.42;100.00;100569.72;4985720;28;19925;-80
2022/12/22 13:35:23;;;;;;;48.60;29.88;;;;;;;9.55;100.00;100567.50;5010257;28;20469;-82
2022/12/22 13:37:52;;;;;;;51.00;30.88;;;;;;;9.41;100.00;100549.56;4977048;28;20093;-81
2022/12/22 13:40:24;;;;;;;51.85;29.77;;;;;;;9.37;100.00;100545.56;5002663;28;20074;-84
2022/12/22 13:42:51;;;;;;;53.17;30.30;;;;;;;9.37;100.00;100545.56;5020872;28;20117;-82
2022/12/22 13:45:23;;;;;;;50.22;30.33;;;;;;;9.51;100.00;100539.69;5020483;28;20038;-81
2022/12/22 13:47:49;;;;;;;50.08;32.25;;;;;;;9.45;100.00;100532.38;5004089;28;20404;-83
2022/12/22 13:50:22;;;;;;;49.60;29.02;;;;;;;9.65;100.00;100515.31;5021096;28;20504;-82
2022/12/22 13:52:50;;;;;;;53.40;31.67;;;;;;;9.43;100.00;100510.56;5005273;28;20080;-82
2022/12/22 13:55:22;;;;;;;52.33;32.90;;;;;;;9.35;100.00;100513.13;5020935;28;20084;-82
2022/12/22 13:57:48;;;;;;;55.50;32.70;;;;;;;9.59;100.00;100509.81;5018181;28;20113;-82
2022/12/22 14:00:20;;;;;;;55.28;30.80;;;;;;;9.57;100.00;100510.00;5017775;28;20496;-81
2022/12/22 14:02:46;;;;;;;51.63;32.20;;;;;;;9.66;100.00;100506.41;5018076;28;20580;-83
2022/12/22 14:05:12;;;;;;;55.20;31.48;;;;;;;9.62;100.00;100512.97;5016985;28;20065;-82
2022/12/22 14:07:39;;;;;;;48.72;29.15;;;;;;;9.85;100.00;100508.81;5016851;28;20061;-82
2022/12/22 14:10:05;;;;;;;54.42;32.08;;;;;;;9.74;100.00;100513.56;4999450;28;20044;-81
2022/12/22 14:12:40;;;;;;;58.97;33.65;;;;;;;9.55;100.00;100508.47;4999572;28;20373;-82
2022/12/22 14:15:14;;;;;;;52.83;32.55;;;;;;;9.57;100.00;100511.81;5000861;28;20034;-82
2022/12/22 14:17:40;;;;;;;55.55;33.22;;;;;;;9.50;100.00;100519.53;5018493;28;20042;-81
2022/12/22 14:20:20;;;;;;;58.72;34.55;;;;;;;9.34;100.00;100524.72;5000491;28;20097;-81
2022/12/22 14:22:51;;;;;;;61.40;35.42;;;;;;;9.27;100.00;100521.00;5018073;28;20034;-81
2022/12/22 14:25:28;;;;;;;56.63;32.92;;;;;;;9.19;100.00;100503.25;5017734;28;20022;-81
2022/12/22 14:27:55;;;;;;;50.10;30.95;;;;;;;9.37;100.00;100500.59;5019648;28;20034;-81
2022/12/22 14:30:26;;;;;;;57.65;35.10;;;;;;;9.34;100.00;100487.69;5034205;28;20040;-82
2022/12/22 14:32:56;;;;;;;55.15;33.70;;;;;;;9.29;100.00;100489.94;5037807;28;20042;-82
2022/12/22 14:35:24;;;;;;;52.30;31.42;;;;;;;9.57;100.00;100499.41;5022701;28;20610;-82
2022/12/22 14:38:01;;;;;;;55.40;33.20;;;;;;;9.55;100.00;100506.66;5039014;28;20037;-81
2022/12/22 14:40:34;;;;;;;48.63;31.90;;;;;;;9.60;100.00;100507.03;5032126;28;20046;-81
2022/12/22 14:43:11;;;;;;;;;;;;;;;9.57;100.00;100504.69;5019070;28;20113;-81
2022/12/22 14:45:42;;;;;;;59.83;34.03;;;;;;;9.42;100.00;100508.03;5002736;28;20347;-81
2022/12/22 14:48:14;;;;;;;55.78;33.97;;;;;;;9.43;100.00;100518.50;5016810;28;20038;-81
2022/12/22 14:50:50;;;;;;;55.90;33.88;;;;;;;9.46;100.00;100531.41;5016098;28;20038;-82
2022/12/22 14:53:23;;;;;;;59.25;33.92;;;;;;;9.50;100.00;100529.28;5017951;28;20034;-81
2022/12/22 14:55:50;;;;;;;55.47;34.40;;;;;;;9.37;100.00;100531.50;4999287;28;20338;-81
2022/12/22 14:58:27;;;;;;;65.20;35.05;;;;;;;9.22;100.00;100531.22;5015476;28;20033;-82
2022/12/22 15:01:27;;;;;;;57.10;32.42;;;;;;;9.21;100.00;100525.09;5015387;28;20045;-82
2022/12/22 15:04:16;;;;;;;48.97;28.45;;;;;;;9.27;100.00;100531.59;5015263;28;20070;-82
2022/12/22 15:06:44;;;;;;;43.72;26.58;;;;;;;9.11;100.00;100534.09;5015551;28;20147;-81
2022/12/22 15:09:13;;;;;;;48.35;27.42;;;;;;;9.12;100.00;100522.53;5015017;28;20041;-82
2022/12/22 15:11:45;;;;;;;43.00;27.75;;;;;;;8.96;100.00;100522.38;4997846;28;20037;-82
2022/12/22 15:14:16;;;;;;;48.38;30.48;;;;;;;8.88;100.00;100514.41;5014968;28;20033;-83